WDH weather

Hosea Kutako International Airport
Windhoek, Khomas Region, Namibia

Public forecast

Using degrees Celsius for public forecast. Weather courtesy of forecast.io.

METAR (pilot weather report)

Report is more than 2 hours old.

Retrieved 2019/02/16 19:00 UTC (2 hours ago):

FYWH 161900Z 00000KT 9999 FEW040 24/15 Q1021 NOSIG

TAF (pilot weather forecast)

Forecast is more than 12 hours old.

Retrieved 2019/02/15 00:00 UTC (2 days ago):

TAF FYWH 152200Z 1600/1700 26005KT CAVOK BECMG 1609/1611 04008KT 9999 SCT050 PROB30 TEMPO 1613/1618 -TSRA FEW040CB